Holmes Chapel, United Kingdom
Current Conditions -  °F | °C
As of 8:20 PM on Friday 21 Nov 2014 (Local Time) from EGCC Reporting Station
Light Rain Light Rain  
Wind Chill: 40°   Ceiling: 2900
Heat Index: 46°   Visibility: 5mi
Dew Point: 45°   Wind: 15mph
Humidity: 93%   Direction: 140°SE
Pressure: 29.85"   Gusts: NA
Location:  53.2°N, 2.36°W
Report Text: EGCC 212020Z 14013KT 100V160 8000 -RA BKN029 08/07 Q1011 TEMPO 4000 +RA BKN014
Loading
Personal Weather Stations






























Interactive Weather Map New forecast layout! Learn more

10-Day Weather Forecast

Advertisements
Track Severe Weather on mobile